createdAt,value
2023-11-21T07:57:29.182Z,100200.09
2023-11-21T07:59:57.251Z,100197.81
2023-11-21T08:02:24.860Z,100201.41
2023-11-21T08:04:58.337Z,100196.53
2023-11-21T08:07:30.258Z,100197.31
2023-11-21T08:09:58.656Z,100187.28
2023-11-21T08:12:31.486Z,100182.50
2023-11-21T08:15:03.897Z,100179.44
2023-11-21T08:17:33.183Z,100163.06
2023-11-21T08:20:01.139Z,100152.44
2023-11-21T08:22:28.957Z,100164.78
2023-11-21T08:24:57.837Z,100181.56
2023-11-21T08:27:25.572Z,100182.00
2023-11-21T08:29:53.577Z,100180.44
2023-11-21T08:32:22.472Z,100185.84
2023-11-21T08:34:54.866Z,100177.09
2023-11-21T08:37:23.634Z,100174.53
2023-11-21T08:39:51.720Z,100177.19
2023-11-21T08:42:19.626Z,100175.38
2023-11-21T08:44:47.404Z,100175.53
2023-11-21T08:47:15.647Z,100183.69
2023-11-21T08:49:43.576Z,100179.19
2023-11-21T08:52:11.822Z,100176.25
2023-11-21T08:54:40.633Z,100185.72
2023-11-21T08:57:08.179Z,100184.94
2023-11-21T08:59:35.827Z,100186.56
2023-11-21T09:02:03.670Z,100179.50
2023-11-21T09:04:31.530Z,100189.19
2023-11-21T09:07:01.229Z,100194.13
2023-11-21T09:09:28.982Z,100200.50
2023-11-21T09:11:56.680Z,100196.78
2023-11-21T09:14:25.140Z,100196.22
2023-11-21T09:16:52.859Z,100191.59
2023-11-21T09:19:20.736Z,100177.16
2023-11-21T09:21:48.430Z,100179.19
2023-11-21T09:24:16.056Z,100183.31
2023-11-21T09:26:43.960Z,100179.34
2023-11-21T09:29:11.590Z,100182.75
2023-11-21T09:31:40.042Z,100176.09
2023-11-21T09:34:08.012Z,100173.53
2023-11-21T09:36:35.805Z,100176.75
2023-11-21T09:39:06.770Z,100179.31
2023-11-21T09:41:58.590Z,100183.53
2023-11-21T09:44:53.026Z,100188.75
2023-11-21T09:47:21.661Z,100181.25
2023-11-21T09:49:52.935Z,100177.53
2023-11-21T09:52:27.096Z,100167.94
2023-11-21T09:54:58.267Z,100171.59
2023-11-21T09:57:26.808Z,100177.19
2023-11-21T10:00:00.733Z,100182.63
2023-11-21T10:02:31.521Z,100177.91
2023-11-21T10:05:01.602Z,100176.72
2023-11-21T10:07:31.148Z,100166.88
2023-11-21T10:10:02.004Z,100168.06
2023-11-21T10:12:30.529Z,100170.94
2023-11-21T10:15:02.367Z,100168.69
2023-11-21T10:17:37.688Z,100174.38
2023-11-21T10:20:12.578Z,100168.09
2023-11-21T10:22:43.250Z,100168.31
2023-11-21T10:25:11.635Z,100176.75
2023-11-21T10:27:40.502Z,100171.25
2023-11-21T10:30:13.730Z,100184.22
2023-11-21T10:32:42.318Z,100176.22
2023-11-21T10:35:13.374Z,100181.91
2023-11-21T10:37:41.753Z,100175.81
2023-11-21T10:40:13.896Z,100168.47
2023-11-21T10:42:43.327Z,100170.47
2023-11-21T10:45:14.726Z,100174.28
2023-11-21T10:47:43.680Z,100169.19
2023-11-21T10:50:16.445Z,100161.69
2023-11-21T10:52:48.709Z,100156.06
2023-11-21T10:55:23.279Z,100171.88
2023-11-21T10:57:54.827Z,100156.28
2023-11-21T11:00:23.492Z,100162.34
2023-11-21T11:02:53.662Z,100159.34
2023-11-21T11:05:24.376Z,100174.16
2023-11-21T11:08:21.805Z,100155.22
2023-11-21T11:10:52.202Z,100152.91
2023-11-21T11:13:20.407Z,100148.91
2023-11-21T11:15:51.573Z,100153.56
2023-11-21T11:18:23.583Z,61801.38
2023-11-21T11:20:58.329Z,61801.38
2023-11-21T11:23:55.693Z,61801.38
2023-11-21T11:26:29.515Z,61801.38
2023-11-21T11:29:06.430Z,61801.38
2023-11-21T11:32:07.719Z,61801.38
2023-11-21T11:34:43.002Z,61801.38
2023-11-21T11:37:11.164Z,61801.38
2023-11-21T11:39:45.390Z,61801.38
2023-11-21T11:42:18.859Z,61801.38
2023-11-21T11:44:53.574Z,61801.38
2023-11-21T11:47:39.060Z,61801.38
2023-11-21T11:50:26.424Z,61801.38
2023-11-21T11:53:16.818Z,61801.38
2023-11-21T11:55:45.018Z,61801.38
2023-11-21T11:58:13.250Z,61801.38
2023-11-21T12:00:42.019Z,61801.38
2023-11-21T12:03:10.861Z,61801.38
2023-11-21T12:05:43.796Z,61801.38
2023-11-21T12:08:13.852Z,61801.38
2023-11-21T12:10:41.815Z,61801.38
2023-11-21T12:13:11.800Z,61801.38
2023-11-21T12:15:43.353Z,61801.38
2023-11-21T12:18:11.357Z,61801.38
2023-11-21T12:20:44.317Z,61801.38
2023-11-21T12:23:15.049Z,61801.38
2023-11-21T12:25:43.703Z,61801.38
2023-11-21T12:28:13.252Z,61801.38
2023-11-21T12:30:45.455Z,61801.38
2023-11-21T12:33:18.763Z,61801.38
2023-11-21T12:35:46.584Z,61801.38
2023-11-21T12:38:14.625Z,61801.38
2023-11-21T12:40:42.393Z,61801.38
2023-11-21T12:43:10.842Z,61801.38
2023-11-21T12:45:39.464Z,61801.38
2023-11-21T12:48:12.701Z,61801.38
2023-11-21T12:50:41.142Z,61801.38
2023-11-21T12:53:14.374Z,61801.38
2023-11-21T12:55:43.852Z,61801.38
2023-11-21T12:58:14.498Z,61801.38
2023-11-21T13:00:49.874Z,61801.38
2023-11-21T13:03:27.059Z,61801.38
2023-11-21T13:05:59.730Z,61801.38
2023-11-21T13:12:51.108Z,61801.38
2023-11-21T13:21:22.698Z,61801.38
2023-11-21T13:23:55.868Z,61801.38
2023-11-21T13:26:27.382Z,61801.38
2023-11-21T13:28:55.243Z,61801.38
2023-11-21T13:31:27.081Z,61801.38
2023-11-21T13:34:00.524Z,61801.38
2023-11-21T13:36:31.695Z,61801.38
2023-11-21T13:39:00.516Z,61801.38
2023-11-21T13:41:36.552Z,61801.38
2023-11-21T13:44:22.819Z,61801.38
2023-11-21T13:46:53.850Z,61801.38
2023-11-21T13:49:24.225Z,61801.38
2023-11-21T13:51:59.496Z,61801.38
2023-11-21T13:54:38.027Z,61801.38
2023-11-21T13:57:15.460Z,61801.38
2023-11-21T13:59:47.976Z,61801.38
2023-11-21T14:02:19.773Z,61801.38
2023-11-21T14:05:01.385Z,61801.38
2023-11-21T14:07:37.364Z,61801.38
2023-11-21T14:10:15.946Z,61801.38
2023-11-21T14:12:58.311Z,61801.38
2023-11-21T14:15:49.243Z,61801.38
2023-11-21T14:18:18.464Z,61801.38
2023-11-21T14:20:52.634Z,61801.38
2023-11-21T14:23:26.989Z,61801.38
2023-11-21T14:26:04.398Z,61801.38
2023-11-21T14:28:46.249Z,61801.38
2023-11-21T14:31:20.570Z,61801.38
2023-11-21T14:33:51.329Z,61801.38
2023-11-21T14:36:33.166Z,61801.38
2023-11-21T14:39:22.908Z,61801.38
2023-11-21T14:42:19.698Z,61801.38
2023-11-21T14:45:10.963Z,61801.38
2023-11-21T14:48:07.696Z,61801.38
2023-11-21T14:51:51.137Z,61801.38
2023-11-21T14:54:09.856Z,61801.38
2023-11-21T14:56:52.819Z,61801.38
2023-11-21T14:59:42.332Z,61801.38
2023-11-21T15:02:52.580Z,61801.38
2023-11-21T15:05:28.371Z,61801.38
2023-11-21T15:08:33.706Z,61801.38
2023-11-21T15:12:25.855Z,61801.38
2023-11-21T15:14:33.105Z,61801.38
2023-11-21T15:20:28.920Z,61801.38
2023-11-21T15:22:56.961Z,61801.38
2023-11-21T15:25:30.239Z,61801.38
2023-11-21T15:28:03.601Z,61801.38
2023-11-21T15:30:51.473Z,61801.38
2023-11-21T15:33:27.285Z,61801.38
2023-11-21T15:36:02.207Z,61801.38
2023-11-21T15:38:34.922Z,61801.38
2023-11-21T15:41:12.627Z,61801.38
2023-11-21T15:43:56.962Z,61801.38
2023-11-21T15:46:25.374Z,61801.38
2023-11-21T15:48:58.813Z,61801.38
2023-11-21T15:51:26.594Z,61801.38
2023-11-21T15:54:05.035Z,61801.38
2023-11-21T15:56:36.213Z,61801.38
2023-11-21T15:59:09.447Z,61801.38
2023-11-21T16:02:06.349Z,61801.38
2023-11-21T16:04:37.852Z,61801.38
2023-11-21T16:07:08.497Z,61801.38
2023-11-21T16:09:39.979Z,61801.38
2023-11-21T16:12:13.923Z,61801.38
2023-11-21T16:14:49.145Z,61801.38
2023-11-21T16:17:23.979Z,61801.38
2023-11-21T16:19:52.605Z,61801.38
2023-11-21T16:22:23.362Z,61801.38
2023-11-21T16:24:55.039Z,61801.38
2023-11-21T16:27:23.040Z,61801.38
2023-11-21T16:29:57.417Z,61801.38
2023-11-21T16:32:29.365Z,61801.38
2023-11-21T16:34:58.243Z,61801.38
2023-11-21T16:37:26.473Z,61801.38
2023-11-21T16:39:55.346Z,61801.38
2023-11-21T16:42:23.368Z,61801.38
2023-11-21T16:44:51.307Z,61801.38
2023-11-21T16:47:19.084Z,61801.38
2023-11-21T16:49:46.753Z,61801.38
2023-11-21T16:52:14.675Z,61801.38
2023-11-21T16:54:42.716Z,61801.38
2023-11-21T16:57:10.617Z,61801.38
2023-11-21T16:59:38.510Z,61801.38
2023-11-21T17:02:06.779Z,61801.38
2023-11-21T17:04:35.690Z,61801.38
2023-11-21T17:07:03.599Z,61801.38
2023-11-21T17:09:32.859Z,61801.38
2023-11-21T17:12:03.519Z,61801.38
2023-11-21T17:14:31.340Z,61801.38
2023-11-21T17:16:59.071Z,61801.38
2023-11-21T17:19:26.985Z,61801.38
2023-11-21T17:21:55.021Z,61801.38
2023-11-21T17:24:22.797Z,61801.38
2023-11-21T17:26:50.451Z,61801.38
2023-11-21T17:29:18.389Z,61801.38
2023-11-21T17:31:46.535Z,61801.38
2023-11-21T17:34:14.878Z,61801.38
2023-11-21T17:36:42.838Z,61801.38
2023-11-21T17:39:11.817Z,61801.38
2023-11-21T17:41:39.650Z,61801.38
2023-11-21T17:44:08.402Z,61801.38
2023-11-21T17:46:37.525Z,61801.38
2023-11-21T17:49:06.277Z,61801.38
2023-11-21T17:51:39.447Z,61801.38
2023-11-21T17:54:17.152Z,61801.38
2023-11-21T17:56:44.754Z,61801.38
2023-11-21T17:59:12.668Z,61801.38
2023-11-21T18:01:41.016Z,61801.38
2023-11-21T18:04:12.042Z,61801.38
2023-11-21T18:06:40.388Z,61801.38
2023-11-21T18:09:10.308Z,61801.38
2023-11-21T18:11:38.276Z,61801.38
2023-11-21T18:14:10.767Z,61801.38
2023-11-21T18:16:39.596Z,61801.38
2023-11-21T18:19:07.723Z,61801.38
2023-11-21T18:21:42.840Z,61801.38
2023-11-21T18:24:11.608Z,61801.38
2023-11-21T18:26:39.744Z,61801.38
2023-11-21T18:29:08.505Z,61801.38
2023-11-21T18:31:36.655Z,61801.38
2023-11-21T18:34:04.913Z,61801.38
2023-11-21T18:36:35.208Z,61801.38
2023-11-21T18:39:03.690Z,61801.38
2023-11-21T18:41:33.925Z,61801.38
2023-11-21T18:44:02.095Z,61801.38
2023-11-21T18:46:30.863Z,61801.38
2023-11-21T18:48:59.922Z,61801.38
2023-11-21T18:51:28.412Z,61801.38
2023-11-21T18:53:57.104Z,61801.38
2023-11-21T18:56:25.542Z,61801.38
2023-11-21T18:58:57.003Z,61801.38
2023-11-21T19:01:29.241Z,61801.38
2023-11-21T19:03:59.301Z,61801.38
2023-11-21T19:06:28.062Z,61801.38
2023-11-21T19:08:56.002Z,61801.38
2023-11-21T19:11:23.720Z,61801.38
2023-11-21T19:13:51.604Z,61801.38
2023-11-21T19:16:20.776Z,61801.38
2023-11-21T19:18:50.422Z,61801.38
2023-11-21T19:21:19.731Z,61801.38
2023-11-21T19:23:49.271Z,61801.38
2023-11-21T19:26:17.310Z,61801.38
2023-11-21T19:28:45.491Z,61801.38
2023-11-21T19:31:21.217Z,61801.38
2023-11-21T19:33:52.575Z,61801.38
2023-11-21T19:36:23.303Z,61801.38
2023-11-21T19:38:52.132Z,61801.38
2023-11-21T19:41:22.138Z,61801.38
2023-11-21T19:43:52.476Z,61801.38
2023-11-21T19:46:22.157Z,61801.38
2023-11-21T19:48:54.436Z,61801.38
2023-11-21T19:51:25.132Z,61801.38
2023-11-21T19:53:56.602Z,61801.38
2023-11-21T19:56:28.672Z,61801.38
2023-11-21T19:58:56.778Z,61801.38
2023-11-21T20:01:24.705Z,61801.38
2023-11-21T20:03:53.014Z,61801.38
2023-11-21T20:06:22.502Z,61801.38
2023-11-21T20:08:52.834Z,61801.38
2023-11-21T20:11:22.511Z,61801.38
2023-11-21T20:13:51.031Z,61801.38
2023-11-21T20:16:19.896Z,61801.38
2023-11-21T20:18:47.873Z,61801.38
2023-11-21T20:21:21.270Z,61801.38
2023-11-21T20:23:50.201Z,61801.38
2023-11-21T20:26:22.660Z,61801.38
2023-11-21T20:28:51.168Z,61801.38
2023-11-21T20:31:22.872Z,61801.38
2023-11-21T20:33:54.601Z,61801.38
2023-11-21T20:36:22.497Z,61801.38
2023-11-21T20:38:50.483Z,61801.38
2023-11-21T20:41:19.102Z,61801.38
2023-11-21T20:43:47.229Z,61801.38
2023-11-21T20:46:15.507Z,61801.38
2023-11-21T20:48:43.952Z,61801.38
2023-11-21T20:51:13.442Z,61801.38
2023-11-21T20:53:41.018Z,61801.38
2023-11-21T20:56:09.221Z,61801.38
2023-11-21T20:58:39.178Z,61801.38
2023-11-21T21:01:07.067Z,61801.38
2023-11-21T21:03:35.208Z,61801.38
2023-11-21T21:06:06.116Z,61801.38
2023-11-21T21:08:34.240Z,61801.38
2023-11-21T21:11:04.218Z,61801.38
2023-11-21T21:13:31.986Z,61801.38
2023-11-21T21:15:59.694Z,61801.38
2023-11-21T21:18:28.463Z,61801.38
2023-11-21T21:20:56.310Z,61801.38
2023-11-21T21:23:24.046Z,61801.38
2023-11-21T21:25:54.777Z,61801.38
2023-11-21T21:28:23.014Z,61801.38
2023-11-21T21:30:53.362Z,61801.38
2023-11-21T21:33:21.158Z,61801.38
2023-11-21T21:35:48.970Z,61801.38
2023-11-21T21:38:16.756Z,61801.38
2023-11-21T21:40:44.589Z,61801.38
2023-11-21T21:43:12.205Z,61801.38
2023-11-21T21:45:39.915Z,61801.38
2023-11-21T21:48:09.019Z,61801.38
2023-11-21T21:50:37.297Z,61801.38
2023-11-21T21:53:06.749Z,61801.38
2023-11-21T21:55:34.357Z,61801.38
2023-11-21T21:58:02.294Z,61801.38
2023-11-21T22:00:29.919Z,61801.38
2023-11-21T22:02:57.930Z,61801.38
2023-11-21T22:05:26.269Z,61801.38
2023-11-21T22:07:54.046Z,61801.38
2023-11-21T22:10:21.790Z,61801.38
2023-11-21T22:12:52.332Z,61801.38
2023-11-21T22:15:34.429Z,61801.38
2023-11-21T22:18:06.097Z,61801.38
2023-11-21T22:20:35.483Z,61801.38
2023-11-21T22:23:05.505Z,61801.38
2023-11-21T22:25:37.302Z,61801.38
2023-11-21T22:28:11.111Z,61801.38
2023-11-21T22:30:59.417Z,61801.38
2023-11-21T22:33:34.115Z,61801.38
2023-11-21T22:36:20.481Z,61801.38
2023-11-21T22:38:57.909Z,61801.38
2023-11-21T22:41:40.840Z,61801.38
2023-11-21T22:44:20.445Z,61801.38
2023-11-21T22:46:54.220Z,61801.38
2023-11-21T22:49:34.444Z,61801.38
2023-11-21T22:52:16.293Z,61801.38
2023-11-21T22:54:46.536Z,61801.38
2023-11-21T22:57:39.205Z,61801.38
2023-11-21T23:00:23.041Z,61801.38
2023-11-21T23:02:55.992Z,61801.38
2023-11-21T23:05:28.792Z,61801.38
2023-11-21T23:08:09.107Z,61801.38
2023-11-21T23:10:44.911Z,61801.38
2023-11-21T23:13:17.902Z,61801.38
2023-11-21T23:15:56.306Z,61801.38
2023-11-21T23:18:28.166Z,61801.38
2023-11-21T23:21:01.886Z,61801.38
2023-11-21T23:23:35.000Z,61801.38
2023-11-21T23:26:08.212Z,61801.38
2023-11-21T23:28:39.277Z,61801.38
2023-11-21T23:31:07.730Z,61801.38
2023-11-21T23:33:36.545Z,61801.38
2023-11-21T23:36:05.522Z,61801.38
2023-11-21T23:38:35.914Z,61801.38
2023-11-21T23:41:07.135Z,61801.38
2023-11-21T23:43:42.070Z,61801.38
2023-11-21T23:46:11.944Z,61801.38
2023-11-21T23:48:50.294Z,61801.38
2023-11-21T23:51:20.762Z,61801.38
2023-11-21T23:53:56.575Z,61801.38
2023-11-21T23:56:25.730Z,61801.38
2023-11-21T23:58:58.352Z,61801.38
